Time;durP1;ratioP1;P1;durP2;ratioP2;P2;SDS_P1;SDS_P2;PMS_P1;PMS_P2;Temp;Humidity;BMP_temperature;BMP_pressure;BME280_temperature;BME280_humidity;BME280_pressure;Samples;Min_cycle;Max_cycle;Signal;HPM_P1;HPM_P2
2021/11/22 00:01:06;;;;;;;150.57;38.83;;;3.40;99.90;;;;;;4989444;28;20077;-83
2021/11/22 00:03:33;;;;;;;127.07;36.00;;;3.30;99.90;;;;;;4995110;28;20569;-83
2021/11/22 00:06:00;;;;;;;83.10;32.15;;;3.40;99.90;;;;;;4985966;28;20091;-82
2021/11/22 00:08:27;;;;;;;112.20;32.55;;;3.40;99.90;;;;;;5013665;28;20053;-82
2021/11/22 00:11:20;;;;;;;104.97;33.78;;;3.30;99.90;;;;;;4990434;28;20069;-83
2021/11/22 00:13:47;;;;;;;106.35;33.30;;;3.00;99.90;;;;;;5003713;28;20052;-83
2021/11/22 00:16:14;;;;;;;118.70;34.90;;;3.00;99.90;;;;;;5001315;28;20057;-82
2021/11/22 00:18:44;;;;;;;110.38;33.97;;;3.00;99.90;;;;;;4996785;28;20041;-83
2021/11/22 00:21:11;;;;;;;119.07;33.78;;;2.80;99.90;;;;;;4993371;28;20049;-83
2021/11/22 00:23:38;;;;;;;166.90;35.15;;;2.60;99.90;;;;;;4992910;28;20046;-83
2021/11/22 00:26:05;;;;;;;294.73;42.65;;;2.70;99.90;;;;;;5003438;28;20054;-83
2021/11/22 00:28:31;;;;;;;459.73;53.97;;;2.60;99.90;;;;;;4992307;28;20046;-83
2021/11/22 00:31:12;;;;;;;440.48;58.33;;;2.50;99.90;;;;;;5007228;28;20069;-82
2021/11/22 00:33:47;;;;;;;390.17;55.42;;;2.60;99.90;;;;;;4988652;28;20046;-83
2021/11/22 00:36:33;;;;;;;399.27;58.47;;;2.70;99.90;;;;;;4988913;28;20055;-82
2021/11/22 00:39:00;;;;;;;371.60;54.33;;;2.70;99.90;;;;;;5021459;28;20053;-83
2021/11/22 00:41:29;;;;;;;267.63;50.33;;;2.60;99.90;;;;;;5024649;28;20533;-82
2021/11/22 00:43:56;;;;;;;124.35;38.17;;;2.60;99.90;;;;;;5000515;28;20049;-82
2021/11/22 00:46:25;;;;;;;111.50;35.25;;;2.50;99.90;;;;;;5006741;28;20053;-81
2021/11/22 00:48:52;;;;;;;150.75;39.25;;;2.60;99.90;;;;;;4975738;28;20674;-82
2021/11/22 00:51:19;;;;;;;102.00;32.50;;;2.60;99.90;;;;;;4992250;28;20058;-82
2021/11/22 00:53:47;;;;;;;70.50;28.38;;;2.60;99.90;;;;;;4991547;28;20061;-82
2021/11/22 00:56:17;;;;;;;78.50;29.23;;;2.70;99.90;;;;;;4991548;28;20057;-82
2021/11/22 00:58:45;;;;;;;100.18;32.67;;;2.70;99.90;;;;;;4974611;28;20052;-82
2021/11/22 01:01:13;;;;;;;78.80;31.20;;;2.80;99.90;;;;;;4955246;28;20129;-83
2021/11/22 01:03:40;;;;;;;62.47;27.00;;;2.90;99.90;;;;;;4970711;28;20432;-82
2021/11/22 01:06:09;;;;;;;61.03;27.02;;;3.00;99.90;;;;;;4986022;28;20042;-82
2021/11/22 01:08:35;;;;;;;77.57;28.27;;;3.10;99.90;;;;;;4970732;28;20074;-81
2021/11/22 01:11:02;;;;;;;69.53;27.88;;;3.10;99.90;;;;;;4963442;28;20056;-82
2021/11/22 01:13:29;;;;;;;79.47;29.17;;;3.20;99.90;;;;;;4971900;28;20497;-83
2021/11/22 01:15:56;;;;;;;88.38;32.70;;;3.20;99.90;;;;;;4988225;28;20129;-82
2021/11/22 01:18:23;;;;;;;85.70;32.67;;;3.40;99.90;;;;;;4971475;28;20046;-82
2021/11/22 01:20:50;;;;;;;84.75;34.47;;;3.60;99.90;;;;;;5010426;28;20054;-81
2021/11/22 01:23:17;;;;;;;89.25;33.67;;;3.80;99.90;;;;;;4961632;28;20053;-82
2021/11/22 01:25:44;;;;;;;107.50;35.65;;;3.90;99.90;;;;;;4997378;28;20103;-81
2021/11/22 01:28:12;;;;;;;97.65;38.78;;;4.10;99.90;;;;;;4994212;28;20049;-80
2021/11/22 01:30:39;;;;;;;103.75;38.83;;;4.20;99.90;;;;;;4990079;28;20061;-81
2021/11/22 01:33:06;;;;;;;94.07;38.75;;;4.30;99.90;;;;;;4975553;28;20065;-82
2021/11/22 01:35:33;;;;;;;99.32;39.30;;;4.40;99.90;;;;;;4975798;28;20197;-82
2021/11/22 01:38:00;;;;;;;85.45;34.88;;;4.40;99.90;;;;;;4974970;28;20050;-82
2021/11/22 01:40:27;;;;;;;91.30;35.85;;;4.50;99.90;;;;;;4974489;28;20791;-81
2021/11/22 01:42:57;;;;;;;75.32;31.20;;;4.50;99.90;;;;;;4978426;28;20537;-82
2021/11/22 01:45:25;;;;;;;76.53;35.38;;;4.60;99.90;;;;;;4966884;28;20046;-82
2021/11/22 01:47:53;;;;;;;79.97;34.35;;;4.50;99.90;;;;;;4975253;28;20042;-81
2021/11/22 01:50:21;;;;;;;88.03;37.75;;;4.50;99.90;;;;;;4993991;28;20057;-82
2021/11/22 01:52:50;;;;;;;84.40;36.22;;;4.60;99.90;;;;;;4977156;28;20109;-81
2021/11/22 01:55:20;;;;;;;90.18;36.97;;;4.60;99.90;;;;;;4962258;28;20078;-80
2021/11/22 01:57:48;;;;;;;89.65;37.92;;;4.60;99.90;;;;;;4978983;28;20050;-79
2021/11/22 02:00:33;;;;;;;66.07;33.70;;;4.50;99.90;;;;;;5010734;28;20041;-83
2021/11/22 02:03:01;;;;;;;62.17;28.05;;;4.50;99.90;;;;;;4979053;28;20046;-80
2021/11/22 02:05:28;;;;;;;69.80;32.22;;;4.50;99.90;;;;;;5014290;28;20102;-82
2021/11/22 02:07:56;;;;;;;62.75;31.23;;;4.50;99.90;;;;;;4983898;28;20062;-80
2021/11/22 02:10:23;;;;;;;43.50;19.92;;;4.50;99.90;;;;;;4992279;28;20093;-80
2021/11/22 02:12:51;;;;;;;55.75;27.92;;;4.50;99.90;;;;;;4980772;28;20056;-81
2021/11/22 02:15:19;;;;;;;50.80;26.60;;;4.50;99.90;;;;;;4994887;28;20030;-80
2021/11/22 02:17:48;;;;;;;53.53;27.50;;;4.50;99.90;;;;;;5034749;28;20045;-82
2021/11/22 02:20:18;;;;;;;53.92;28.40;;;4.50;99.90;;;;;;5035626;28;20045;-81
2021/11/22 02:22:46;;;;;;;53.78;26.67;;;4.50;99.90;;;;;;5030797;28;20566;-83
2021/11/22 02:25:15;;;;;;;45.95;25.20;;;4.50;99.90;;;;;;5030314;28;20073;-82
2021/11/22 02:27:43;;;;;;;48.25;24.83;;;4.50;99.90;;;;;;5013869;28;20164;-80
2021/11/22 02:30:13;;;;;;;47.90;25.08;;;4.60;99.90;;;;;;4995925;28;20455;-82
2021/11/22 02:32:41;;;;;;;47.38;23.95;;;4.60;99.90;;;;;;5013552;28;20053;-81
2021/11/22 02:35:17;;;;;;;52.17;26.05;;;4.70;99.90;;;;;;5012337;28;20045;-83
2021/11/22 02:37:44;;;;;;;49.65;26.95;;;4.70;99.90;;;;;;4993652;28;20053;-81
2021/11/22 02:40:16;;;;;;;50.13;27.35;;;4.80;99.90;;;;;;5025125;28;20064;-78
2021/11/22 02:42:45;;;;;;;64.90;29.80;;;4.70;99.90;;;;;;4985383;28;20543;-79
2021/11/22 02:45:17;;;;;;;61.33;29.58;;;4.70;99.90;;;;;;5019578;28;20060;-79
2021/11/22 02:47:46;;;;;;;58.33;29.80;;;4.70;99.90;;;;;;5029995;28;20049;-81
2021/11/22 02:50:15;;;;;;;53.88;29.13;;;4.70;99.90;;;;;;5029692;28;20172;-79
2021/11/22 02:52:43;;;;;;;51.60;26.33;;;4.60;99.90;;;;;;4994250;28;20240;-82
2021/11/22 02:55:13;;;;;;;46.42;26.08;;;4.70;99.90;;;;;;4992840;28;20140;-79
2021/11/22 02:57:40;;;;;;;47.33;26.38;;;4.60;99.90;;;;;;4995502;28;20041;-78
2021/11/22 03:00:11;;;;;;;47.10;26.23;;;4.70;99.90;;;;;;4992969;28;20041;-80
2021/11/22 03:02:38;;;;;;;44.38;25.33;;;4.70;99.90;;;;;;5008190;28;20038;-82
2021/11/22 03:05:06;;;;;;;49.13;24.83;;;4.80;99.90;;;;;;5009138;28;20049;-81
2021/11/22 03:07:32;;;;;;;50.80;26.77;;;4.80;99.90;;;;;;4990790;28;20140;-77
2021/11/22 03:10:00;;;;;;;47.38;26.13;;;4.80;99.90;;;;;;5007774;28;20495;-80
2021/11/22 03:12:26;;;;;;;48.08;27.50;;;4.80;99.90;;;;;;5009905;28;20050;-80
2021/11/22 03:14:54;;;;;;;56.92;27.55;;;4.80;99.90;;;;;;5017567;28;20605;-80
2021/11/22 03:17:20;;;;;;;53.22;29.35;;;4.90;99.90;;;;;;5012168;28;20048;-79
2021/11/22 03:19:47;;;;;;;54.75;28.60;;;4.90;99.90;;;;;;5005269;28;20037;-79
2021/11/22 03:22:14;;;;;;;48.95;27.15;;;4.90;99.90;;;;;;5010725;28;20053;-79
2021/11/22 03:24:41;;;;;;;48.45;25.73;;;4.90;99.90;;;;;;5011623;28;20523;-79
2021/11/22 03:27:08;;;;;;;51.00;27.00;;;4.90;99.90;;;;;;5010253;28;20674;-81
2021/11/22 03:29:35;;;;;;;47.65;27.02;;;4.70;99.90;;;;;;5009574;28;20056;-79
2021/11/22 03:32:02;;;;;;;48.60;26.20;;;4.60;99.90;;;;;;4995187;28;20050;-81
2021/11/22 03:34:29;;;;;;;48.28;26.25;;;4.60;99.90;;;;;;5010439;28;20091;-81
2021/11/22 03:37:02;;;;;;;41.90;23.08;;;4.60;99.90;;;;;;5011136;28;20506;-81
2021/11/22 03:39:31;;;;;;;48.25;27.40;;;4.60;99.90;;;;;;5011900;28;20056;-81
2021/11/22 03:42:01;;;;;;;51.15;26.17;;;4.60;99.90;;;;;;5009753;28;20099;-80
2021/11/22 03:44:29;;;;;;;44.22;24.90;;;4.70;99.90;;;;;;5034532;28;20060;-81
2021/11/22 03:46:57;;;;;;;48.75;24.88;;;4.70;99.90;;;;;;4991322;28;20060;-80
2021/11/22 03:49:24;;;;;;;43.20;25.60;;;4.60;99.90;;;;;;5009239;28;20450;-80
2021/11/22 03:51:51;;;;;;;48.08;25.23;;;4.70;99.90;;;;;;5027294;28;20045;-81
2021/11/22 03:54:19;;;;;;;44.63;24.33;;;4.70;99.90;;;;;;5010597;28;20132;-80
2021/11/22 03:56:46;;;;;;;45.33;23.58;;;4.70;99.90;;;;;;5009664;28;20530;-80
2021/11/22 03:59:13;;;;;;;37.08;21.63;;;4.80;99.90;;;;;;5010622;28;20129;-81
2021/11/22 04:01:40;;;;;;;39.25;20.30;;;4.80;99.90;;;;;;4994376;28;20052;-83
2021/11/22 04:04:08;;;;;;;34.92;20.63;;;4.80;99.90;;;;;;5011678;28;20450;-80
2021/11/22 04:06:35;;;;;;;33.95;19.75;;;4.70;99.90;;;;;;5010979;28;20655;-82
2021/11/22 04:09:04;;;;;;;33.55;19.23;;;4.70;99.90;;;;;;4995327;28;20045;-80
2021/11/22 04:11:32;;;;;;;33.13;18.02;;;4.70;99.90;;;;;;4994943;28;20060;-81
2021/11/22 04:13:59;;;;;;;29.67;17.00;;;4.70;99.90;;;;;;5017432;28;20143;-80
2021/11/22 04:16:26;;;;;;;29.55;18.23;;;4.60;99.90;;;;;;5026819;28;20057;-80
2021/11/22 04:18:53;;;;;;;27.73;17.17;;;4.60;99.90;;;;;;4993908;28;20076;-81
2021/11/22 04:21:23;;;;;;;26.23;16.55;;;4.70;99.90;;;;;;4994431;28;20049;-80
2021/11/22 04:23:57;;;;;;;28.90;17.55;;;4.60;99.90;;;;;;5011291;28;20113;-80
2021/11/22 04:26:24;;;;;;;29.25;17.70;;;4.60;99.90;;;;;;4992284;28;20057;-81
2021/11/22 04:28:51;;;;;;;28.02;16.70;;;4.50;99.90;;;;;;5024992;28;20049;-81
2021/11/22 04:31:18;;;;;;;28.40;16.17;;;4.60;99.90;;;;;;5010384;28;20053;-81
2021/11/22 04:33:48;;;;;;;28.20;16.42;;;4.60;99.90;;;;;;4995545;28;20557;-81
2021/11/22 04:36:15;;;;;;;29.98;15.55;;;4.60;99.90;;;;;;4992570;28;20049;-81
2021/11/22 04:38:41;;;;;;;25.35;16.33;;;4.60;99.90;;;;;;4993542;28;20049;-81
2021/11/22 04:41:08;;;;;;;24.13;15.48;;;4.70;99.90;;;;;;4989607;28;20053;-81
2021/11/22 04:43:35;;;;;;;26.73;16.10;;;4.70;99.90;;;;;;4994319;28;20514;-81
2021/11/22 04:46:02;;;;;;;24.35;15.70;;;4.70;99.90;;;;;;5010491;28;20107;-82
2021/11/22 04:48:29;;;;;;;30.63;16.70;;;4.70;99.90;;;;;;4990504;28;20049;-80
2021/11/22 04:50:56;;;;;;;32.03;15.80;;;4.70;99.90;;;;;;5024918;28;20061;-81
2021/11/22 04:53:23;;;;;;;24.65;15.52;;;4.70;99.90;;;;;;4992799;28;20180;-79
2021/11/22 04:55:51;;;;;;;24.90;15.80;;;4.50;99.90;;;;;;4992297;28;20056;-81
2021/11/22 04:58:18;;;;;;;28.52;15.70;;;4.60;99.90;;;;;;5008827;28;20152;-80
2021/11/22 05:00:45;;;;;;;28.67;15.55;;;4.50;99.90;;;;;;5010074;28;20045;-79
2021/11/22 05:03:12;;;;;;;23.30;15.02;;;4.50;99.90;;;;;;5010433;28;20076;-82
2021/11/22 05:05:39;;;;;;;21.05;13.88;;;4.50;99.90;;;;;;5010141;28;20107;-81
2021/11/22 05:08:07;;;;;;;20.65;13.43;;;4.40;99.90;;;;;;4992273;28;20073;-81
2021/11/22 05:10:37;;;;;;;26.45;15.55;;;4.40;99.90;;;;;;4989764;28;20057;-80
2021/11/22 05:13:05;;;;;;;38.55;14.80;;;4.40;99.90;;;;;;5000438;28;20061;-81
2021/11/22 05:15:36;;;;;;;25.55;15.23;;;4.40;99.90;;;;;;4983964;28;20053;-81
2021/11/22 05:18:06;;;;;;;22.63;14.60;;;4.40;99.90;;;;;;5009863;28;20054;-83
2021/11/22 05:20:34;;;;;;;23.10;13.52;;;4.40;99.90;;;;;;4980371;28;20050;-83
2021/11/22 05:23:01;;;;;;;25.02;14.75;;;4.40;99.90;;;;;;4985630;28;20543;-81
2021/11/22 05:25:28;;;;;;;25.15;15.63;;;4.30;99.90;;;;;;4985540;28;20057;-81
2021/11/22 05:27:55;;;;;;;22.60;14.75;;;4.30;99.90;;;;;;4985679;28;20625;-81
2021/11/22 05:30:25;;;;;;;27.13;14.65;;;4.30;99.90;;;;;;4984726;28;20362;-81
2021/11/22 05:32:58;;;;;;;23.17;12.63;;;4.40;99.90;;;;;;4990565;28;20495;-80
2021/11/22 05:35:26;;;;;;;21.58;13.50;;;4.40;99.90;;;;;;4970277;28;20051;-81
2021/11/22 05:37:54;;;;;;;21.15;13.60;;;4.30;99.90;;;;;;5004798;28;20296;-80
2021/11/22 05:40:21;;;;;;;22.45;14.43;;;4.30;99.90;;;;;;4986724;28;20113;-78
2021/11/22 05:42:48;;;;;;;27.13;15.95;;;4.30;99.90;;;;;;4986390;28;20045;-82
2021/11/22 05:45:15;;;;;;;22.23;16.05;;;4.30;99.90;;;;;;4997924;28;20053;-80
2021/11/22 05:47:42;;;;;;;25.90;15.27;;;4.40;99.90;;;;;;5006349;28;20077;-81
2021/11/22 05:50:09;;;;;;;23.60;14.00;;;4.40;99.90;;;;;;5025483;28;20049;-80
2021/11/22 05:52:38;;;;;;;23.05;15.20;;;4.40;99.90;;;;;;5007799;28;20087;-81
2021/11/22 05:55:12;;;;;;;24.40;16.20;;;4.30;99.90;;;;;;5006671;28;20483;-78
2021/11/22 05:57:38;;;;;;;24.63;16.30;;;4.40;99.90;;;;;;5008213;28;20053;-81
2021/11/22 06:00:08;;;;;;;28.00;18.23;;;4.40;99.90;;;;;;5008522;28;20069;-81
2021/11/22 06:02:40;;;;;;;28.10;17.83;;;4.50;99.90;;;;;;5009123;28;20566;-78
2021/11/22 06:05:08;;;;;;;26.10;16.98;;;4.40;99.90;;;;;;5008745;28;20056;-79
2021/11/22 06:07:38;;;;;;;33.97;19.23;;;4.40;99.90;;;;;;4992155;28;20045;-81
2021/11/22 06:10:06;;;;;;;26.15;16.73;;;4.30;99.90;;;;;;4996104;28;20053;-82
2021/11/22 06:12:34;;;;;;;20.92;13.70;;;4.30;99.90;;;;;;4995489;28;20073;-80
2021/11/22 06:15:01;;;;;;;20.13;12.88;;;4.20;99.90;;;;;;5012526;28;20072;-81
2021/11/22 06:17:28;;;;;;;20.85;13.90;;;4.20;99.90;;;;;;4992119;28;20065;-79
2021/11/22 06:19:55;;;;;;;22.92;14.68;;;4.30;99.90;;;;;;4998966;28;20077;-80
2021/11/22 06:22:22;;;;;;;24.60;14.57;;;4.20;99.90;;;;;;5011136;28;20238;-81
2021/11/22 06:24:49;;;;;;;24.67;15.20;;;4.20;99.90;;;;;;5018575;28;20084;-81
2021/11/22 06:27:16;;;;;;;25.20;16.52;;;4.30;99.90;;;;;;5018974;28;20218;-80
2021/11/22 06:29:43;;;;;;;21.67;14.52;;;4.40;99.90;;;;;;5030776;28;20080;-79
2021/11/22 06:32:11;;;;;;;22.25;14.25;;;4.30;99.90;;;;;;5048556;28;20037;-79
2021/11/22 06:34:39;;;;;;;23.48;13.93;;;4.20;99.90;;;;;;5016072;28;20270;-80
2021/11/22 06:37:06;;;;;;;21.25;14.25;;;4.20;99.90;;;;;;5031828;28;20045;-83
2021/11/22 06:39:35;;;;;;;23.90;13.68;;;4.10;99.90;;;;;;5014146;28;20152;-82
2021/11/22 06:42:02;;;;;;;28.50;16.08;;;4.20;99.90;;;;;;4980530;28;20046;-81
2021/11/22 06:44:29;;;;;;;20.55;13.98;;;4.10;99.90;;;;;;5003976;28;20046;-82
2021/11/22 06:46:56;;;;;;;24.00;14.27;;;4.10;99.90;;;;;;5005624;28;20523;-82
2021/11/22 06:49:23;;;;;;;22.95;14.02;;;4.00;99.90;;;;;;5012391;28;20244;-81
2021/11/22 06:51:51;;;;;;;23.08;14.25;;;4.00;99.90;;;;;;4996224;28;20053;-81
2021/11/22 06:54:18;;;;;;;22.05;15.27;;;4.10;99.90;;;;;;5012324;28;20140;-82
2021/11/22 06:56:45;;;;;;;21.25;14.27;;;4.00;99.90;;;;;;4996405;28;20157;-81
2021/11/22 06:59:12;;;;;;;19.88;13.55;;;4.00;99.90;;;;;;5010153;28;20060;-82
2021/11/22 07:01:40;;;;;;;29.58;16.00;;;4.10;99.90;;;;;;5012627;28;20057;-82
2021/11/22 07:04:07;;;;;;;26.58;15.32;;;4.00;99.90;;;;;;4997521;28;20041;-82
2021/11/22 07:06:34;;;;;;;23.42;15.30;;;4.10;99.90;;;;;;5012666;28;20056;-81
2021/11/22 07:09:01;;;;;;;24.08;14.05;;;4.10;99.90;;;;;;5011144;28;20049;-82
2021/11/22 07:11:28;;;;;;;24.75;15.60;;;4.10;99.90;;;;;;5009321;28;20053;-81
2021/11/22 07:13:55;;;;;;;26.50;16.15;;;4.10;99.90;;;;;;5002191;28;20059;-83
2021/11/22 07:16:22;;;;;;;25.27;15.18;;;4.20;99.90;;;;;;5028764;28;20469;-81
2021/11/22 07:18:52;;;;;;;21.65;14.68;;;4.10;99.90;;;;;;4995731;28;20053;-80
2021/11/22 07:21:19;;;;;;;22.77;14.65;;;4.10;99.90;;;;;;4995512;28;20053;-82
2021/11/22 07:23:46;;;;;;;25.10;14.43;;;4.00;99.90;;;;;;4995789;28;20065;-80
2021/11/22 07:26:13;;;;;;;20.25;13.32;;;3.90;99.90;;;;;;4994302;28;20049;-79
2021/11/22 07:28:40;;;;;;;21.88;13.98;;;4.00;99.90;;;;;;5011588;28;20045;-81
2021/11/22 07:31:07;;;;;;;23.95;14.98;;;3.90;99.90;;;;;;4995258;28;20053;-81
2021/11/22 07:33:34;;;;;;;17.40;12.25;;;4.00;99.90;;;;;;4992671;28;20045;-81
2021/11/22 07:36:00;;;;;;;17.52;12.60;;;4.00;99.90;;;;;;5007779;28;20054;-81
2021/11/22 07:38:28;;;;;;;20.17;13.43;;;4.10;99.90;;;;;;5023588;28;20092;-81
2021/11/22 07:40:55;;;;;;;20.08;13.98;;;3.90;99.90;;;;;;4980898;28;20084;-81
2021/11/22 07:43:22;;;;;;;21.48;13.48;;;4.00;99.90;;;;;;5025216;28;20045;-80
2021/11/22 07:45:49;;;;;;;23.35;13.48;;;4.00;99.90;;;;;;4996492;28;20046;-80
2021/11/22 07:48:16;;;;;;;20.50;13.00;;;4.00;99.90;;;;;;5007483;28;20119;-81
2021/11/22 07:50:43;;;;;;;23.52;14.77;;;3.90;99.90;;;;;;5011436;28;20037;-79
2021/11/22 07:53:30;;;;;;;20.10;13.60;;;3.90;99.90;;;;;;4991039;28;20181;-82
2021/11/22 07:55:58;;;;;;;17.98;13.23;;;4.00;99.90;;;;;;4999710;28;20046;-81
2021/11/22 07:58:25;;;;;;;20.02;13.60;;;4.10;99.90;;;;;;5026720;28;20037;-79
2021/11/22 08:00:52;;;;;;;19.65;12.73;;;4.20;99.90;;;;;;5010251;28;20050;-80
2021/11/22 08:03:19;;;;;;;25.23;14.38;;;4.10;99.90;;;;;;4991905;28;20073;-80
2021/11/22 08:05:48;;;;;;;19.95;13.60;;;4.00;99.90;;;;;;4990399;28;20103;-80
2021/11/22 08:08:16;;;;;;;19.45;13.90;;;4.00;99.90;;;;;;5006423;28;20121;-81
2021/11/22 08:10:52;;;;;;;19.77;11.68;;;3.90;99.90;;;;;;5010264;28;20053;-81
2021/11/22 08:13:19;;;;;;;21.23;13.60;;;3.90;99.90;;;;;;5011904;28;20049;-81
2021/11/22 08:16:07;;;;;;;22.63;14.20;;;3.90;99.90;;;;;;5020801;28;20463;-83
2021/11/22 08:18:35;;;;;;;22.75;13.88;;;3.90;99.90;;;;;;4994601;28;20041;-83
2021/11/22 08:21:04;;;;;;;24.67;15.20;;;3.90;99.90;;;;;;5028514;28;20517;-82
2021/11/22 08:23:31;;;;;;;26.88;16.58;;;3.80;99.90;;;;;;5027266;28;20046;-83
2021/11/22 08:25:58;;;;;;;21.20;14.98;;;3.90;99.90;;;;;;5010497;28;20123;-83
2021/11/22 08:28:25;;;;;;;23.55;15.13;;;3.90;99.90;;;;;;5008843;28;20067;-83
2021/11/22 08:30:52;;;;;;;19.40;12.60;;;4.00;99.90;;;;;;5007556;28;20163;-84
2021/11/22 08:33:20;;;;;;;21.90;14.10;;;4.00;99.90;;;;;;4994924;28;20045;-84
2021/11/22 08:35:48;;;;;;;21.48;13.98;;;3.90;99.90;;;;;;5011272;28;20037;-83
2021/11/22 08:38:16;;;;;;;22.17;13.35;;;3.90;99.90;;;;;;4993415;28;20084;-83
2021/11/22 08:40:45;;;;;;;19.88;12.15;;;4.00;99.90;;;;;;4991272;28;20045;-81
2021/11/22 08:43:14;;;;;;;16.10;11.45;;;4.00;99.90;;;;;;5003956;28;20051;-82
2021/11/22 08:45:44;;;;;;;12.70;9.68;;;4.00;99.90;;;;;;5001692;28;20136;-83
2021/11/22 08:48:37;;;;;;;14.23;11.18;;;3.90;99.90;;;;;;5013918;28;20472;-82
2021/11/22 08:51:05;;;;;;;12.20;9.18;;;3.90;99.90;;;;;;5004109;28;20057;-83
2021/11/22 08:53:32;;;;;;;10.43;8.00;;;3.90;99.90;;;;;;4990993;28;20041;-84
2021/11/22 08:55:59;;;;;;;12.07;9.68;;;3.80;99.90;;;;;;4998131;28;20041;-82
2021/11/22 08:58:26;;;;;;;14.95;9.18;;;3.90;99.90;;;;;;5009579;28;20055;-82
2021/11/22 09:00:53;;;;;;;12.55;10.40;;;4.00;99.90;;;;;;5004194;28;20046;-81
2021/11/22 09:03:20;;;;;;;11.68;9.35;;;4.20;99.90;;;;;;4973441;28;20038;-81
2021/11/22 09:05:47;;;;;;;11.48;8.27;;;4.30;99.90;;;;;;5008288;28;20064;-83
2021/11/22 09:08:16;;;;;;;11.50;8.35;;;4.20;99.90;;;;;;4988948;28;20048;-80
2021/11/22 09:10:43;;;;;;;11.77;8.00;;;4.30;99.90;;;;;;4988378;28;20058;-83
2021/11/22 09:13:09;;;;;;;10.10;8.07;;;4.30;99.90;;;;;;4996612;28;20483;-84
2021/11/22 09:15:38;;;;;;;10.23;7.68;;;4.40;99.90;;;;;;4993957;28;20887;-82
2021/11/22 09:18:05;;;;;;;10.90;8.60;;;4.10;99.90;;;;;;4989080;28;20050;-82
2021/11/22 09:20:32;;;;;;;12.60;9.10;;;4.10;99.90;;;;;;5022958;28;20121;-81
2021/11/22 09:23:01;;;;;;;10.55;8.10;;;4.10;99.90;;;;;;4991281;28;20076;-82
2021/11/22 09:25:29;;;;;;;9.63;7.28;;;4.10;99.90;;;;;;4972739;28;20060;-81
2021/11/22 09:27:57;;;;;;;11.25;8.05;;;3.90;99.90;;;;;;4972738;28;20038;-81
2021/11/22 09:30:52;;;;;;;13.00;9.18;;;3.90;99.90;;;;;;4992863;28;20058;-81
2021/11/22 09:33:46;;;;;;;19.67;10.50;;;4.00;99.90;;;;;;4990305;28;20085;-83
2021/11/22 09:36:14;;;;;;;13.20;9.77;;;4.10;99.90;;;;;;4976019;28;20046;-81
2021/11/22 09:38:41;;;;;;;9.98;8.00;;;4.10;99.90;;;;;;4973027;28;20066;-82
2021/11/22 09:41:09;;;;;;;12.52;8.02;;;4.10;99.90;;;;;;4986348;28;20042;-82
2021/11/22 09:43:36;;;;;;;12.63;8.35;;;4.00;99.90;;;;;;4992441;28;20554;-81
2021/11/22 09:46:03;;;;;;;9.98;7.97;;;4.20;99.90;;;;;;5006428;28;20128;-82
2021/11/22 09:48:30;;;;;;;10.68;8.18;;;4.40;99.90;;;;;;4975172;28;20042;-82
2021/11/22 09:50:57;;;;;;;12.27;8.80;;;4.50;99.90;;;;;;4992378;28;20143;-82
2021/11/22 09:53:25;;;;;;;9.38;7.88;;;4.30;99.90;;;;;;5027079;23;20057;-72
2021/11/22 09:55:51;;;;;;;11.70;9.45;;;4.30;99.90;;;;;;4961473;28;20058;-72
2021/11/22 09:58:18;;;;;;;7.82;6.35;;;4.30;99.90;;;;;;4932630;28;20498;-72
2021/11/22 10:00:48;;;;;;;8.88;5.35;;;4.10;99.90;;;;;;4964657;28;20431;-72
2021/11/22 10:03:21;;;;;;;26.20;7.28;;;4.00;99.90;;;;;;4961929;28;20055;-72
2021/11/22 10:05:55;;;;;;;8.20;6.88;;;4.00;99.90;;;;;;4961971;28;20043;-73
2021/11/22 10:08:22;;;;;;;7.57;6.88;;;4.00;99.90;;;;;;4961731;28;20043;-72
2021/11/22 10:10:54;;;;;;;7.63;6.82;;;4.20;99.90;;;;;;4943553;28;20514;-73
2021/11/22 10:13:23;;;;;;;8.35;6.90;;;4.40;99.90;;;;;;4957938;28;20042;-72
2021/11/22 10:15:52;;;;;;;8.43;6.35;;;4.50;99.90;;;;;;4963076;28;20050;-72
2021/11/22 10:18:31;;;;;;;6.07;5.57;;;4.60;99.90;;;;;;4961114;28;20369;-73
2021/11/22 10:21:07;;;;;;;7.47;5.82;;;4.90;99.90;;;;;;4962189;28;20074;-73
2021/11/22 10:23:42;;;;;;;8.52;6.70;;;5.10;99.90;;;;;;4961351;28;20121;-73
2021/11/22 10:26:11;;;;;;;;;;;4.90;99.90;;;;;;4960916;28;20435;-72
2021/11/22 10:28:53;;;;;;;6.88;6.28;;;4.40;99.90;;;;;;4944779;28;20426;-73
2021/11/22 10:31:27;;;;;;;6.13;5.55;;;4.30;99.90;;;;;;4945359;28;20528;-72
2021/11/22 10:34:00;;;;;;;7.07;6.35;;;4.40;99.90;;;;;;4944007;28;20122;-73
2021/11/22 10:36:29;;;;;;;7.50;6.90;;;4.70;99.90;;;;;;4961642;28;20051;-73
2021/11/22 10:39:00;;;;;;;6.90;6.30;;;4.70;99.90;;;;;;4946198;28;20043;-73
2021/11/22 10:41:30;;;;;;;7.70;7.10;;;5.10;99.90;;;;;;4956794;28;20039;-73
2021/11/22 10:44:04;;;;;;;8.75;7.97;;;5.20;99.90;;;;;;4959946;28;20047;-72
2021/11/22 10:46:58;;;;;;;8.07;7.57;;;5.20;99.90;;;;;;4960007;28;20086;-71
2021/11/22 10:49:41;;;;;;;7.60;6.90;;;4.90;99.90;;;;;;4960297;28;20151;-73
2021/11/22 10:52:14;;;;;;;5.53;5.13;;;5.00;99.90;;;;;;4944957;28;20089;-72
2021/11/22 10:55:10;;;;;;;7.25;6.68;;;5.20;99.90;;;;;;4944714;28;20122;-72
2021/11/22 10:57:47;;;;;;;6.53;5.95;;;5.20;99.90;;;;;;4963771;28;20055;-72
2021/11/22 11:00:28;;;;;;;6.82;5.75;;;5.10;99.90;;;;;;4958858;28;20247;-73
2021/11/22 11:02:57;;;;;;;5.72;5.32;;;5.20;99.90;;;;;;4993013;28;20047;-72
2021/11/22 11:05:38;;;;;;;7.22;6.55;;;5.80;99.90;;;;;;4942206;28;20078;-72
2021/11/22 11:08:08;;;;;;;7.82;7.22;;;6.00;99.90;;;;;;4963267;28;20057;-72
2021/11/22 11:10:37;;;;;;;6.30;5.78;;;5.90;99.90;;;;;;4944148;28;20051;-71
2021/11/22 11:13:04;;;;;;;5.15;4.75;;;6.00;99.90;;;;;;4978864;28;20051;-71
2021/11/22 11:15:31;;;;;;;5.40;4.90;;;5.90;99.90;;;;;;4962442;28;20051;-72
2021/11/22 11:17:58;;;;;;;6.45;5.30;;;5.30;99.90;;;;;;4960744;28;20077;-72
2021/11/22 11:20:25;;;;;;;5.45;4.93;;;4.70;99.90;;;;;;4961293;28;20046;-72
2021/11/22 11:22:52;;;;;;;4.68;4.35;;;4.40;99.90;;;;;;4961905;28;20133;-73
2021/11/22 11:25:22;;;;;;;5.05;4.55;;;4.50;99.90;;;;;;4959357;28;20051;-72
2021/11/22 11:27:49;;;;;;;5.40;4.43;;;4.80;99.90;;;;;;4943013;28;20200;-72
2021/11/22 11:30:20;;;;;;;4.20;3.90;;;4.60;99.90;;;;;;4958386;28;20136;-72
2021/11/22 11:32:49;;;;;;;6.47;4.30;;;4.40;99.90;;;;;;4961484;28;20645;-72
2021/11/22 11:35:19;;;;;;;3.95;3.60;;;4.40;99.90;;;;;;4958283;28;20047;-72
2021/11/22 11:38:07;;;;;;;4.50;4.10;;;4.50;99.90;;;;;;4959177;28;20639;-72
2021/11/22 11:40:59;;;;;;;3.97;3.67;;;4.90;99.90;;;;;;4952945;28;20066;-72
2021/11/22 11:43:58;;;;;;;4.20;3.90;;;5.10;99.90;;;;;;4958701;28;20047;-72
2021/11/22 11:47:07;;;;;;;5.40;4.57;;;5.30;99.90;;;;;;4940388;28;20129;-72
2021/11/22 11:49:35;;;;;;;7.68;5.13;;;5.60;99.90;;;;;;4959476;28;22315;-72
2021/11/22 11:52:26;;;;;;;4.82;4.32;;;5.80;99.90;;;;;;4960374;28;20488;-72
2021/11/22 11:54:54;;;;;;;6.22;4.03;;;5.60;99.90;;;;;;4961264;28;20130;-72
2021/11/22 11:57:25;;;;;;;6.05;4.65;;;5.50;99.90;;;;;;4958478;28;20051;-72
2021/11/22 11:59:52;;;;;;;4.80;4.20;;;5.20;99.90;;;;;;4961807;28;20476;-72
2021/11/22 12:02:26;;;;;;;5.07;4.10;;;5.10;99.90;;;;;;4943156;28;20480;-72
2021/11/22 12:05:08;;;;;;;5.97;4.20;;;4.90;99.90;;;;;;4959000;28;20170;-72
2021/11/22 12:07:48;;;;;;;6.40;4.05;;;4.70;99.90;;;;;;4959315;28;20063;-71
2021/11/22 12:10:27;;;;;;;6.60;4.20;;;4.60;99.90;;;;;;4958537;28;20047;-72
2021/11/22 12:12:56;;;;;;;4.43;3.92;;;4.60;99.90;;;;;;4956556;28;20061;-71
2021/11/22 12:15:26;;;;;;;4.75;4.25;;;4.70;99.90;;;;;;4957813;28;20067;-72
2021/11/22 12:18:25;;;;;;;4.50;3.83;;;4.80;99.90;;;;;;4958810;28;20051;-72
2021/11/22 12:21:03;;;;;;;4.65;3.28;;;5.00;99.90;;;;;;4941740;28;20134;-71
2021/11/22 12:23:40;;;;;;;6.75;4.68;;;5.00;99.90;;;;;;4959246;28;20487;-71
2021/11/22 12:26:11;;;;;;;4.75;4.25;;;4.70;99.90;;;;;;4958070;28;20051;-71
2021/11/22 12:28:38;;;;;;;5.47;4.97;;;4.60;99.90;;;;;;4959105;28;20066;-71
2021/11/22 12:31:10;;;;;;;5.75;4.82;;;4.80;99.90;;;;;;4961131;28;20412;-71
2021/11/22 12:33:41;;;;;;;5.15;4.28;;;4.80;99.90;;;;;;4943919;28;20646;-71
2021/11/22 12:36:11;;;;;;;5.03;4.18;;;5.00;99.90;;;;;;4958572;28;20050;-71
2021/11/22 12:38:40;;;;;;;5.28;4.97;;;5.10;99.90;;;;;;4959195;28;20313;-71
2021/11/22 12:41:29;;;;;;;5.47;5.07;;;5.10;99.90;;;;;;4954862;28;20338;-71
2021/11/22 12:44:04;;;;;;;6.57;5.13;;;5.20;99.90;;;;;;4955025;28;20043;-71
2021/11/22 12:46:52;;;;;;;5.82;5.32;;;5.30;99.90;;;;;;4973480;28;20050;-71
2021/11/22 12:49:29;;;;;;;5.68;5.38;;;5.70;99.90;;;;;;4957493;28;20513;-70
2021/11/22 12:52:36;;;;;;;6.95;6.38;;;5.90;99.90;;;;;;4957846;28;20185;-72
2021/11/22 12:55:19;;;;;;;7.43;7.03;;;6.20;99.90;;;;;;4957274;28;20416;-70